Terminal Aerodrome Forecast
Issued by NWS Atlanta, GA

Home | Current Version | Previous Version | Text Only | Print | Product List | Glossary On
Versions: 1 2 3 4 5 6 7 8 9 10 11 12 13 14 15 16 17 18 19 20 21 22 23 24 25 26 27 28 29 30 31 32 33 34 35 36 37 38
000
FTUS42 KFFC 251001 AAB
TAFATL
TAF AMD
KATL 251001Z 2510/2612 12009KT P6SM BKN012 BKN025
     FM251400 12008KT P6SM OVC015
     FM251600 13007KT P6SM VCSH BKN025
     FM252000 13007KT P6SM VCSH BKN035 PROB30 2520/2602 VRB15G25KT
      3SM TSRA BR BKN025CB
     FM260700 14007KT P6SM BKN009=

USA.gov is the U.S. government's official web portal to all federal, state and local government web resources and services.